Terminal Aerodrome Forecast
Issued by NWS Boston, MA

Home | Current Version | Previous Version | Text Only | Print | Product List | Glossary On
Versions: 1 2 3 4 5 6 7 8 9 10 11 12 13 14 15 16 17 18 19 20 21 22 23 24 25 26 27 28 29 30 31 32 33 34 35 36 37 38
000
FTUS41 KBOX 282339
TAFPVD
TAF
KPVD 282339Z 2900/2924 21009KT P6SM FEW080 FEW120 BKN250
     FM290800 23004KT P6SM SCT150
     FM291100 VRB03KT P6SM SCT030
     FM291800 17007KT P6SM SCT070=

USA.gov is the U.S. government's official web portal to all federal, state and local government web resources and services.